createdAt,value
2022-11-16T00:01:05.446Z,72.23
2022-11-16T00:03:33.442Z,71.67
2022-11-16T00:06:03.614Z,70.74
2022-11-16T00:08:32.872Z,70.39
2022-11-16T00:11:17.356Z,69.43
2022-11-16T00:13:44.120Z,69.56
2022-11-16T00:16:17.984Z,70.60
2022-11-16T00:18:45.517Z,71.09
2022-11-16T00:21:12.452Z,71.76
2022-11-16T00:23:40.013Z,70.63
2022-11-16T00:26:08.423Z,71.96
2022-11-16T00:28:35.837Z,72.47
2022-11-16T00:31:06.433Z,73.35
2022-11-16T00:33:35.191Z,72.47
2022-11-16T00:36:03.726Z,72.95
2022-11-16T00:38:30.889Z,72.94
2022-11-16T00:40:57.956Z,72.24
2022-11-16T00:43:27.361Z,71.28
2022-11-16T00:45:54.326Z,70.64
2022-11-16T00:48:22.598Z,70.02
2022-11-16T00:50:49.802Z,71.67
2022-11-16T00:53:19.471Z,71.71
2022-11-16T00:55:47.891Z,70.46
2022-11-16T00:58:15.803Z,69.20
2022-11-16T01:00:43.353Z,69.49
2022-11-16T01:03:10.954Z,69.55
2022-11-16T01:05:37.848Z,70.24
2022-11-16T01:08:04.909Z,69.56
2022-11-16T01:10:31.718Z,69.90
2022-11-16T01:12:58.969Z,71.74
2022-11-16T01:15:27.692Z,70.20
2022-11-16T01:17:56.549Z,70.51
2022-11-16T01:20:27.107Z,70.15
2022-11-16T01:22:55.679Z,70.13
2022-11-16T01:25:22.809Z,70.39
2022-11-16T01:27:49.756Z,70.50
2022-11-16T01:30:16.781Z,70.19
2022-11-16T01:32:43.790Z,70.38
2022-11-16T01:35:17.447Z,70.60
2022-11-16T01:37:45.153Z,71.05
2022-11-16T01:40:13.923Z,70.94
2022-11-16T01:42:41.480Z,69.83
2022-11-16T01:45:44.744Z,70.27
2022-11-16T01:48:14.787Z,71.56
2022-11-16T01:50:42.672Z,70.75
2022-11-16T01:53:11.379Z,70.53
2022-11-16T01:55:39.768Z,70.19
2022-11-16T01:58:07.576Z,70.82
2022-11-16T02:00:34.462Z,71.05
2022-11-16T02:03:01.762Z,72.59
2022-11-16T02:05:41.139Z,72.14
2022-11-16T02:08:24.777Z,72.08
2022-11-16T02:11:05.763Z,71.24
2022-11-16T02:14:10.773Z,70.63
2022-11-16T02:16:43.469Z,69.97
2022-11-16T02:19:38.152Z,73.22
2022-11-16T02:22:23.420Z,74.57
2022-11-16T02:25:13.641Z,74.44
2022-11-16T02:28:05.243Z,75.43
2022-11-16T02:30:32.770Z,74.46
2022-11-16T02:33:05.109Z,74.87
2022-11-16T02:35:37.832Z,74.96
2022-11-16T02:38:27.248Z,77.92
2022-11-16T02:41:10.857Z,77.29
2022-11-16T02:43:47.654Z,76.00
2022-11-16T02:46:25.202Z,75.96
2022-11-16T02:48:56.438Z,75.57
2022-11-16T02:51:27.574Z,76.64
2022-11-16T02:54:21.223Z,75.72
2022-11-16T02:57:03.453Z,74.05
2022-11-16T02:59:36.601Z,74.78
2022-11-16T03:02:21.531Z,76.41
2022-11-16T03:04:52.278Z,76.62
2022-11-16T03:07:26.045Z,77.49
2022-11-16T03:09:55.216Z,78.25
2022-11-16T03:12:25.687Z,77.80
2022-11-16T03:15:01.796Z,76.74
2022-11-16T03:17:37.050Z,75.04
2022-11-16T03:20:26.438Z,74.10
2022-11-16T03:23:03.484Z,75.83
2022-11-16T03:25:37.128Z,74.37
2022-11-16T03:28:08.499Z,73.80
2022-11-16T03:30:44.323Z,73.13
2022-11-16T03:33:19.538Z,74.07
2022-11-16T03:36:04.677Z,74.79
2022-11-16T03:38:36.298Z,75.75
2022-11-16T03:41:08.035Z,76.15
2022-11-16T03:43:36.538Z,75.95
2022-11-16T03:46:03.788Z,74.52
2022-11-16T03:48:39.740Z,75.08
2022-11-16T03:51:09.497Z,76.56
2022-11-16T03:53:36.658Z,76.17
2022-11-16T03:56:04.794Z,74.91
2022-11-16T03:58:33.975Z,75.39
2022-11-16T04:01:01.260Z,74.94
2022-11-16T04:03:28.066Z,73.76
2022-11-16T04:05:56.203Z,73.42
2022-11-16T04:08:23.077Z,73.92
2022-11-16T04:10:49.994Z,74.59
2022-11-16T04:13:23.720Z,74.38
2022-11-16T04:15:50.405Z,75.10
2022-11-16T04:18:17.844Z,75.08
2022-11-16T04:20:45.361Z,75.05
2022-11-16T04:23:16.496Z,76.15
2022-11-16T04:25:44.617Z,75.79
2022-11-16T04:28:12.255Z,74.96
2022-11-16T04:30:47.994Z,74.83
2022-11-16T04:33:14.880Z,74.25
2022-11-16T04:35:42.423Z,73.58
2022-11-16T04:38:09.192Z,74.27
2022-11-16T04:40:36.904Z,78.09
2022-11-16T04:43:04.942Z,77.92
2022-11-16T04:45:32.174Z,77.01
2022-11-16T04:47:58.917Z,76.25
2022-11-16T04:50:26.509Z,75.50
2022-11-16T04:52:53.211Z,75.29
2022-11-16T04:55:21.450Z,76.17
2022-11-16T04:57:48.344Z,76.67
2022-11-16T05:00:15.629Z,76.65
2022-11-16T05:02:42.491Z,76.69
2022-11-16T05:05:10.063Z,76.80
2022-11-16T05:07:39.126Z,77.99
2022-11-16T05:10:06.495Z,77.69
2022-11-16T05:12:34.552Z,76.49
2022-11-16T05:15:01.321Z,74.85
2022-11-16T05:17:28.454Z,74.99
2022-11-16T05:19:55.555Z,73.59
2022-11-16T05:22:22.654Z,73.25
2022-11-16T05:24:49.492Z,72.21
2022-11-16T05:27:18.310Z,71.82
2022-11-16T05:29:45.231Z,72.03
2022-11-16T05:32:13.182Z,70.60
2022-11-16T05:34:40.144Z,71.04
2022-11-16T05:37:07.195Z,71.38
2022-11-16T05:39:34.356Z,70.57
2022-11-16T05:42:01.606Z,69.68
2022-11-16T05:44:28.358Z,69.47
2022-11-16T05:46:55.394Z,69.51
2022-11-16T05:49:22.894Z,68.55
2022-11-16T05:51:50.035Z,68.49
2022-11-16T05:54:21.860Z,68.65
2022-11-16T05:56:49.616Z,68.47
2022-11-16T05:59:18.587Z,69.26
2022-11-16T06:01:45.946Z,68.44
2022-11-16T06:04:13.552Z,67.74
2022-11-16T06:06:40.950Z,66.56
2022-11-16T06:09:08.442Z,66.29
2022-11-16T06:11:36.331Z,65.17
2022-11-16T06:14:03.282Z,65.85
2022-11-16T06:16:30.203Z,65.51
2022-11-16T06:19:00.091Z,65.81
2022-11-16T06:21:27.264Z,65.43
2022-11-16T06:23:54.020Z,64.53
2022-11-16T06:26:21.145Z,64.12
2022-11-16T06:28:48.731Z,63.39
2022-11-16T06:31:15.551Z,62.88
2022-11-16T06:33:42.382Z,63.25
2022-11-16T06:36:12.220Z,64.62
2022-11-16T06:38:42.635Z,65.32
2022-11-16T06:41:09.569Z,64.67
2022-11-16T06:43:36.426Z,64.13
2022-11-16T06:46:03.284Z,63.34
2022-11-16T06:48:30.956Z,62.93
2022-11-16T06:50:57.887Z,62.67
2022-11-16T06:53:29.017Z,62.34
2022-11-16T06:56:00.386Z,61.79
2022-11-16T06:58:29.487Z,62.42
2022-11-16T07:00:56.211Z,62.67
2022-11-16T07:03:23.966Z,63.02
2022-11-16T07:05:50.775Z,63.38
2022-11-16T07:08:17.473Z,62.37
2022-11-16T07:10:44.516Z,62.04
2022-11-16T07:13:11.286Z,60.94
2022-11-16T07:15:38.067Z,60.71
2022-11-16T07:18:07.195Z,60.25
2022-11-16T07:20:34.836Z,61.02
2022-11-16T07:23:03.229Z,61.15
2022-11-16T07:25:31.890Z,60.40
2022-11-16T07:27:58.678Z,60.72
2022-11-16T07:30:26.555Z,60.08
2022-11-16T07:32:58.127Z,60.79
2022-11-16T07:35:25.310Z,60.50
2022-11-16T07:37:52.169Z,60.23
2022-11-16T07:40:19.465Z,59.73
2022-11-16T07:42:46.339Z,60.42
2022-11-16T07:45:13.245Z,61.44
2022-11-16T07:47:40.113Z,61.57
2022-11-16T07:50:07.532Z,61.53
2022-11-16T07:52:34.868Z,61.48
2022-11-16T07:55:02.053Z,61.19
2022-11-16T07:57:28.967Z,61.52
2022-11-16T07:59:56.013Z,60.29
2022-11-16T08:02:22.977Z,60.42
2022-11-16T08:04:50.514Z,60.54
2022-11-16T08:07:17.339Z,59.61
2022-11-16T08:09:44.270Z,59.48
2022-11-16T08:12:11.177Z,57.99
2022-11-16T08:14:37.992Z,58.84
2022-11-16T08:17:05.074Z,58.45
2022-11-16T08:19:31.922Z,58.61
2022-11-16T08:21:58.717Z,58.18
2022-11-16T08:24:26.092Z,57.77
2022-11-16T08:26:52.834Z,58.24
2022-11-16T08:29:19.730Z,56.88
2022-11-16T08:31:46.937Z,56.79
2022-11-16T08:34:16.204Z,57.24
2022-11-16T08:36:42.971Z,56.46
2022-11-16T08:39:09.952Z,56.29
2022-11-16T08:41:36.841Z,55.43
2022-11-16T08:44:04.273Z,55.73
2022-11-16T08:46:31.017Z,55.66
2022-11-16T08:48:58.446Z,55.31
2022-11-16T08:51:28.319Z,55.83
2022-11-16T08:53:59.076Z,54.25
2022-11-16T08:56:26.615Z,53.58
2022-11-16T08:58:58.398Z,54.33
2022-11-16T09:01:28.492Z,54.38
2022-11-16T09:03:56.305Z,53.19
2022-11-16T09:06:24.765Z,53.14
2022-11-16T09:08:52.527Z,52.90
2022-11-16T09:11:21.620Z,52.14
2022-11-16T09:13:49.989Z,52.38
2022-11-16T09:16:22.306Z,51.73
2022-11-16T09:18:51.927Z,50.99
2022-11-16T09:21:26.737Z,51.52
2022-11-16T09:24:05.641Z,50.73
2022-11-16T09:26:32.576Z,50.16
2022-11-16T09:29:01.177Z,50.05
2022-11-16T09:31:37.155Z,48.04
2022-11-16T09:34:04.055Z,47.98
2022-11-16T09:36:31.522Z,46.79
2022-11-16T09:42:08.448Z,47.14
2022-11-16T09:44:56.647Z,45.91
2022-11-16T09:47:47.057Z,45.47
2022-11-16T09:50:47.848Z,44.76
2022-11-16T09:53:23.973Z,45.37
2022-11-16T09:55:53.395Z,45.46
2022-11-16T09:58:47.130Z,46.53
2022-11-16T10:01:41.969Z,45.60
2022-11-16T10:04:18.313Z,45.82
2022-11-16T10:06:51.774Z,45.82
2022-11-16T10:09:19.574Z,46.37
2022-11-16T10:11:55.239Z,47.07
2022-11-16T10:14:42.940Z,45.94
2022-11-16T10:17:17.097Z,45.80
2022-11-16T10:20:10.763Z,46.03
2022-11-16T10:23:14.168Z,45.00
2022-11-16T10:25:45.122Z,42.90
2022-11-16T10:28:49.249Z,43.59
2022-11-16T10:31:50.949Z,44.06
2022-11-16T10:34:26.446Z,43.71
2022-11-16T10:37:01.244Z,42.97
2022-11-16T10:39:31.570Z,43.85
2022-11-16T10:42:07.211Z,44.99
2022-11-16T10:44:52.731Z,44.74
2022-11-16T10:47:34.051Z,42.59
2022-11-16T10:50:18.712Z,41.22
2022-11-16T10:52:45.590Z,43.28
2022-11-16T10:55:15.817Z,41.88
2022-11-16T10:58:03.459Z,42.23
2022-11-16T11:00:49.908Z,42.83
2022-11-16T11:03:30.597Z,40.63
2022-11-16T11:05:57.645Z,39.65
2022-11-16T11:08:27.583Z,41.16
2022-11-16T11:11:05.682Z,41.99
2022-11-16T11:13:32.873Z,41.97
2022-11-16T11:16:17.838Z,41.57
2022-11-16T11:18:46.266Z,41.77
2022-11-16T11:21:18.859Z,42.13
2022-11-16T11:23:49.590Z,42.18
2022-11-16T11:26:36.145Z,42.14
2022-11-16T11:29:20.746Z,42.10
2022-11-16T11:31:51.969Z,41.61
2022-11-16T11:34:35.375Z,42.78
2022-11-16T11:37:04.014Z,42.57
2022-11-16T11:39:32.816Z,42.75
2022-11-16T11:42:04.339Z,41.66
2022-11-16T11:44:38.664Z,40.90
2022-11-16T11:48:01.941Z,41.09
2022-11-16T11:51:06.930Z,42.14
2022-11-16T11:53:42.637Z,43.23
2022-11-16T11:56:12.885Z,43.40
2022-11-16T11:58:40.963Z,42.92
2022-11-16T12:01:44.462Z,42.93
2022-11-16T12:04:38.026Z,43.21
2022-11-16T12:07:18.457Z,43.67
2022-11-16T12:10:00.553Z,43.19
2022-11-16T12:13:21.243Z,43.10
2022-11-16T12:19:39.234Z,42.37
2022-11-16T12:22:40.084Z,41.62
2022-11-16T13:22:09.217Z,38.81
2022-11-16T13:28:38.261Z,38.46
2022-11-16T13:31:17.507Z,39.04
2022-11-16T13:44:51.673Z,40.40
2022-11-16T14:06:30.140Z,41.32
2022-11-16T14:08:58.234Z,41.95
2022-11-16T14:11:37.918Z,41.92
2022-11-16T14:14:10.584Z,41.67
2022-11-16T14:16:59.092Z,42.82
2022-11-16T14:19:44.324Z,42.61
2022-11-16T14:22:53.351Z,42.37
2022-11-16T14:25:28.485Z,42.37
2022-11-16T14:28:25.654Z,43.18
2022-11-16T14:31:01.302Z,42.75
2022-11-16T14:33:36.314Z,43.63
2022-11-16T14:36:06.687Z,43.72
2022-11-16T14:38:36.896Z,43.80
2022-11-16T14:41:06.780Z,43.98
2022-11-16T14:43:43.639Z,43.59
2022-11-16T14:46:35.019Z,44.11
2022-11-16T14:49:03.224Z,43.71
2022-11-16T14:51:41.955Z,43.58
2022-11-16T14:54:35.049Z,44.44
2022-11-16T14:57:04.730Z,43.63
2022-11-16T14:59:32.222Z,44.38
2022-11-16T15:02:04.883Z,43.86
2022-11-16T15:04:32.295Z,44.68
2022-11-16T15:07:03.308Z,44.03
2022-11-16T15:09:37.480Z,45.02
2022-11-16T15:12:07.003Z,45.75
2022-11-16T15:14:40.694Z,44.98
2022-11-16T15:17:08.280Z,45.32
2022-11-16T15:19:35.588Z,44.76
2022-11-16T15:22:04.363Z,45.29
2022-11-16T15:24:33.498Z,44.98
2022-11-16T15:27:09.573Z,46.04
2022-11-16T15:29:37.031Z,45.97
2022-11-16T15:32:04.707Z,45.78
2022-11-16T15:34:34.695Z,45.62
2022-11-16T15:37:02.437Z,45.53
2022-11-16T15:39:34.542Z,46.20
2022-11-16T15:42:04.189Z,46.15
2022-11-16T15:44:33.283Z,45.98
2022-11-16T15:47:02.443Z,46.13
2022-11-16T15:49:30.455Z,46.87
2022-11-16T15:51:58.713Z,45.89
2022-11-16T15:54:25.528Z,46.37
2022-11-16T15:56:56.064Z,46.48
2022-11-16T15:59:31.822Z,46.48
2022-11-16T16:02:07.051Z,46.90
2022-11-16T16:05:06.344Z,46.32
2022-11-16T16:07:41.769Z,46.54
2022-11-16T16:10:24.720Z,46.92
2022-11-16T16:12:56.867Z,46.35
2022-11-16T16:15:35.192Z,46.30
2022-11-16T16:18:04.081Z,45.95
2022-11-16T16:20:32.718Z,46.06
2022-11-16T16:23:11.615Z,45.77
2022-11-16T16:25:39.033Z,46.25
2022-11-16T16:28:07.126Z,45.90
2022-11-16T16:30:34.177Z,45.14
2022-11-16T16:33:02.284Z,45.48
2022-11-16T16:35:29.249Z,45.89
2022-11-16T16:38:00.603Z,46.37
2022-11-16T16:40:28.307Z,45.67
2022-11-16T16:42:56.497Z,45.55
2022-11-16T16:45:49.824Z,45.47
2022-11-16T16:48:16.637Z,46.25
2022-11-16T16:50:43.538Z,46.54
2022-11-16T16:53:14.467Z,46.13
2022-11-16T16:55:44.384Z,46.70
2022-11-16T16:58:13.072Z,46.54
2022-11-16T17:00:40.783Z,46.08
2022-11-16T17:03:08.022Z,47.26
2022-11-16T17:05:35.045Z,46.49
2022-11-16T17:08:02.082Z,46.90
2022-11-16T17:10:28.932Z,47.11
2022-11-16T17:12:58.890Z,47.62
2022-11-16T17:15:25.763Z,47.66
2022-11-16T17:17:52.591Z,47.25
2022-11-16T17:20:19.537Z,47.32
2022-11-16T17:22:46.332Z,47.72
2022-11-16T17:25:13.261Z,47.43
2022-11-16T17:27:40.140Z,48.04
2022-11-16T17:30:07.852Z,48.32
2022-11-16T17:32:34.697Z,47.51
2022-11-16T17:35:01.761Z,48.00
2022-11-16T17:37:28.613Z,48.16
2022-11-16T17:39:55.414Z,48.49
2022-11-16T17:42:22.356Z,47.61
2022-11-16T17:44:49.120Z,48.05
2022-11-16T17:47:16.013Z,47.26
2022-11-16T17:49:42.867Z,47.86
2022-11-16T17:52:09.679Z,47.71
2022-11-16T17:54:36.540Z,47.19
2022-11-16T17:57:03.363Z,47.90
2022-11-16T17:59:30.848Z,46.89
2022-11-16T18:01:57.704Z,47.45
2022-11-16T18:04:24.677Z,47.20
2022-11-16T18:06:51.964Z,46.96
2022-11-16T18:09:18.820Z,46.40
2022-11-16T18:11:45.857Z,47.39
2022-11-16T18:14:13.100Z,47.18
2022-11-16T18:16:39.918Z,46.94
2022-11-16T18:19:07.473Z,47.14
2022-11-16T18:21:41.348Z,47.28
2022-11-16T18:24:09.178Z,47.47
2022-11-16T18:26:36.919Z,47.03
2022-11-16T18:29:04.070Z,46.96
2022-11-16T18:31:30.905Z,46.77
2022-11-16T18:33:57.719Z,46.76
2022-11-16T18:36:24.831Z,47.03
2022-11-16T18:38:51.610Z,46.97
2022-11-16T18:41:25.112Z,46.82
2022-11-16T18:44:00.198Z,46.32
2022-11-16T18:46:32.528Z,45.49
2022-11-16T18:49:03.139Z,45.40
2022-11-16T18:51:29.969Z,46.72
2022-11-16T18:53:56.761Z,47.31
2022-11-16T18:56:24.708Z,47.55
2022-11-16T18:58:52.897Z,46.70
2022-11-16T19:01:22.935Z,46.57
2022-11-16T19:03:50.993Z,46.43
2022-11-16T19:06:18.439Z,46.22
2022-11-16T19:08:50.515Z,46.11
2022-11-16T19:11:23.104Z,46.75
2022-11-16T19:13:54.829Z,45.99
2022-11-16T19:16:22.345Z,46.75
2022-11-16T19:18:49.260Z,46.11
2022-11-16T19:21:17.072Z,46.26
2022-11-16T19:23:46.466Z,45.75
2022-11-16T19:26:17.933Z,45.64
2022-11-16T19:28:49.304Z,45.95
2022-11-16T19:31:19.656Z,46.30
2022-11-16T19:33:46.719Z,46.23
2022-11-16T19:36:15.820Z,46.58
2022-11-16T19:38:43.372Z,46.91
2022-11-16T19:41:12.038Z,46.36
2022-11-16T19:43:39.205Z,46.03
2022-11-16T19:46:14.762Z,46.48
2022-11-16T19:48:41.485Z,46.24
2022-11-16T19:51:11.284Z,45.90
2022-11-16T19:53:40.052Z,45.96
2022-11-16T19:56:10.270Z,46.63
2022-11-16T19:58:37.876Z,47.70
2022-11-16T20:01:13.944Z,47.44
2022-11-16T20:03:40.945Z,48.17
2022-11-16T20:06:34.641Z,48.13
2022-11-16T20:09:04.465Z,47.89
2022-11-16T20:11:33.725Z,47.45
2022-11-16T20:14:01.990Z,47.61
2022-11-16T20:16:38.780Z,47.79
2022-11-16T20:19:10.587Z,47.41
2022-11-16T20:21:42.113Z,47.26
2022-11-16T20:24:16.475Z,47.31
2022-11-16T20:26:45.236Z,47.72
2022-11-16T20:29:14.773Z,47.49
2022-11-16T20:31:41.681Z,47.48
2022-11-16T20:34:11.832Z,47.06
2022-11-16T20:36:38.667Z,47.48
2022-11-16T20:39:05.398Z,48.09
2022-11-16T20:41:33.554Z,48.40
2022-11-16T20:44:02.096Z,48.68
2022-11-16T20:46:33.450Z,48.64
2022-11-16T20:49:00.603Z,48.15
2022-11-16T20:51:42.930Z,48.51
2022-11-16T20:54:09.785Z,48.31
2022-11-16T20:56:36.717Z,48.28
2022-11-16T20:59:03.580Z,48.55
2022-11-16T21:01:30.484Z,48.19
2022-11-16T21:04:05.728Z,48.98
2022-11-16T21:06:33.425Z,49.01
2022-11-16T21:09:01.334Z,49.73
2022-11-16T21:11:30.292Z,49.82
2022-11-16T21:13:57.504Z,50.01
2022-11-16T21:16:24.989Z,49.83
2022-11-16T21:18:53.278Z,50.15
2022-11-16T21:21:20.038Z,50.92
2022-11-16T21:23:48.261Z,51.19
2022-11-16T21:26:15.528Z,51.04
2022-11-16T21:28:42.793Z,51.03
2022-11-16T21:31:22.523Z,51.52
2022-11-16T21:33:49.373Z,51.71
2022-11-16T21:36:18.490Z,52.01
2022-11-16T21:38:46.737Z,52.42
2022-11-16T21:41:15.579Z,53.11
2022-11-16T21:43:42.699Z,52.81
2022-11-16T21:46:15.484Z,53.34
2022-11-16T21:48:42.715Z,53.90
2022-11-16T21:51:13.060Z,53.98
2022-11-16T21:53:40.380Z,54.45
2022-11-16T21:56:10.723Z,54.52
2022-11-16T21:58:39.082Z,54.16
2022-11-16T22:01:07.766Z,53.95
2022-11-16T22:03:34.941Z,54.01
2022-11-16T22:06:10.361Z,54.22
2022-11-16T22:08:38.567Z,54.51
2022-11-16T22:11:05.683Z,54.34
2022-11-16T22:13:32.752Z,54.90
2022-11-16T22:16:13.844Z,54.91
2022-11-16T22:18:40.776Z,55.46
2022-11-16T22:21:07.808Z,55.65
2022-11-16T22:23:35.299Z,55.49
2022-11-16T22:26:04.430Z,56.06
2022-11-16T22:28:33.476Z,56.73
2022-11-16T22:31:14.455Z,56.24
2022-11-16T22:33:41.944Z,56.88
2022-11-16T22:36:12.427Z,56.98
2022-11-16T22:38:39.213Z,55.95
2022-11-16T22:41:08.077Z,55.72
2022-11-16T22:43:35.218Z,55.57
2022-11-16T22:46:05.470Z,55.65
2022-11-16T22:48:33.835Z,55.07
2022-11-16T22:51:19.105Z,55.43
2022-11-16T22:53:46.053Z,55.44
2022-11-16T22:56:13.565Z,54.74
2022-11-16T22:58:40.339Z,55.36
2022-11-16T23:01:09.191Z,55.70
2022-11-16T23:03:36.881Z,55.83
2022-11-16T23:06:05.700Z,55.55
2022-11-16T23:08:33.291Z,55.60
2022-11-16T23:11:06.524Z,54.93
2022-11-16T23:13:33.659Z,54.83
2022-11-16T23:16:04.971Z,55.08
2022-11-16T23:18:31.896Z,55.25
2022-11-16T23:20:58.709Z,54.92
2022-11-16T23:23:25.507Z,55.30
2022-11-16T23:25:53.770Z,55.82
2022-11-16T23:28:21.140Z,56.09
2022-11-16T23:30:47.865Z,56.62
2022-11-16T23:33:14.733Z,56.70
2022-11-16T23:35:54.156Z,57.60
2022-11-16T23:38:20.867Z,57.28
2022-11-16T23:40:47.657Z,57.56
2022-11-16T23:43:14.416Z,57.82
2022-11-16T23:45:42.093Z,57.73
2022-11-16T23:48:10.870Z,57.73
2022-11-16T23:50:37.876Z,57.14
2022-11-16T23:53:06.260Z,56.66
2022-11-16T23:55:34.639Z,56.26
2022-11-16T23:58:01.935Z,56.34
